Startpagina
METAR-TAF:

METAR-TAF

Vliegvelden :

Abidjan, Ivoorkust

Luchthaven Port Bouet

breedte: 05-15N, lengte: 003-56W, hoogte: 7 m

Actueel weer

Dit bericht is 24 minuten geleden gemaakt, om 00:00 UTC
Wind 9 kt uit het zuiden
Temperatuur 27°C
Vochtigheid 89%
Druk 1014 hPa
Zicht 10 km of meer
Verspreide wolken op 1200 ft

METAR: DIAP 280000Z 19009KT 9999 SCT012 27/25 Q1014 NOSIG

Tijdstip: 00:24 (00:24 UTC)

Verwachting

Dit bericht is 1 uur en het 24 minuten geleden gemaakt, om 23:00 UTC
Verwachting geldig van 28 om 00 UTC tot 29 om 06 UTC
Wind 6 kt uit het zuidzuidwesten
Zicht 10 km of meer
Verspreide wolken op 1200 ft
Tijdelijke
van 28 om 03 UTC tot 28 om 07 UTC
Zicht: 4000 m
Gebroken wolken op 1200 ft
regen
Tijdelijke
van 28 om 14 UTC tot 28 om 20 UTC
Gebroken wolken op 1200 ft
onweer

TAF: DIAP 272300Z 2800/2906 21006KT 9999 SCT012 TEMPO 2803/2807 4000 RA BKN012 TEMPO 2814/2820 TS BKN012

Waarnemingen en weersverwachtingen van meer dan 4000 vliegvelden (METAR en TAF).

De beschikbare stations zijn de gele en rode punten op de kaart.

Ga met uw muis naar het station om de naam te zien.

Klik dan om waarnemingen en weersverwachtingen te zien.

kaart wijzigen: klik op de groene knoppen met een zwart kruis om in te zoomen, op de groene knop met een streepje om uit te zoomen of op de groene pijlen voor aangrenzende kaarten.


METAR-TAF: